Time;durP1;ratioP1;P1;durP2;ratioP2;P2;SDS_P1;SDS_P2;PMS_P1;PMS_P2;Temp;Humidity;BMP_temperature;BMP_pressure;BME280_temperature;BME280_humidity;BME280_pressure;Samples;Min_cycle;Max_cycle;Signal;HPM_P1;HPM_P2
2021/12/14 00:00:47;;;;;;;9.27;6.20;;;10.40;97.80;;;;;;5035904;28;20392;-79
2021/12/14 00:03:15;;;;;;;8.35;6.60;;;10.40;97.90;;;;;;5043018;28;20384;-79
2021/12/14 00:05:42;;;;;;;7.80;6.00;;;10.40;98.10;;;;;;5050186;28;20025;-79
2021/12/14 00:08:12;;;;;;;7.63;6.32;;;10.40;98.20;;;;;;5049472;28;20109;-79
2021/12/14 00:11:09;;;;;;;11.20;6.90;;;10.40;98.30;;;;;;5045908;28;20036;-79
2021/12/14 00:16:03;;;;;;;10.63;6.70;;;10.30;98.30;;;;;;5042835;28;20025;-79
2021/12/14 00:18:29;;;;;;;9.48;7.07;;;10.30;98.40;;;;;;5033130;28;20044;-79
2021/12/14 00:21:01;;;;;;;9.90;6.80;;;10.30;98.40;;;;;;5038244;28;20060;-79
2021/12/14 00:26:16;;;;;;;11.05;7.03;;;10.30;98.50;;;;;;5038951;28;20040;-79
2021/12/14 00:28:42;;;;;;;10.18;7.80;;;10.40;98.50;;;;;;5040461;28;20435;-79
2021/12/14 00:31:14;;;;;;;9.75;7.25;;;10.40;98.50;;;;;;5053731;28;20092;-78
2021/12/14 00:33:40;;;;;;;10.93;6.78;;;10.30;98.50;;;;;;5055556;28;20037;-79
2021/12/14 00:36:08;;;;;;;8.70;7.47;;;10.30;98.60;;;;;;5042670;28;20025;-79
2021/12/14 00:38:36;;;;;;;11.57;8.15;;;10.30;98.70;;;;;;5042844;28;20021;-79
2021/12/14 00:41:08;;;;;;;10.27;7.85;;;10.30;98.70;;;;;;5044212;28;20029;-79
2021/12/14 00:43:34;;;;;;;10.50;6.75;;;10.40;98.70;;;;;;5052199;28;20036;-80
2021/12/14 00:46:00;;;;;;;10.73;7.55;;;10.30;98.80;;;;;;5049029;28;20036;-80
2021/12/14 00:48:26;;;;;;;12.07;8.45;;;10.30;98.80;;;;;;5050358;28;20123;-80
2021/12/14 00:50:54;;;;;;;10.73;7.93;;;10.30;98.80;;;;;;5052988;28;20111;-79
2021/12/14 00:53:20;;;;;;;12.20;7.78;;;10.30;98.90;;;;;;5044793;28;20020;-80
2021/12/14 00:55:49;;;;;;;10.13;7.22;;;10.40;98.90;;;;;;5052107;28;20036;-80
2021/12/14 00:58:16;;;;;;;10.88;8.07;;;10.40;98.90;;;;;;5046238;28;20036;-80
2021/12/14 01:01:05;;;;;;;9.27;8.15;;;10.40;98.90;;;;;;5052957;28;20029;-79
2021/12/14 01:03:33;;;;;;;10.85;8.13;;;10.40;98.80;;;;;;5041585;28;20377;-80
2021/12/14 01:06:01;;;;;;;11.52;8.88;;;10.40;98.90;;;;;;5046517;28;20021;-80
2021/12/14 01:08:29;;;;;;;10.00;7.70;;;10.40;98.90;;;;;;5046229;28;20079;-80
2021/12/14 01:11:14;;;;;;;10.50;7.85;;;10.40;98.90;;;;;;5038250;28;20457;-80
2021/12/14 01:13:49;;;;;;;10.88;7.75;;;10.30;98.90;;;;;;5040473;28;20032;-80
2021/12/14 01:16:30;;;;;;;10.25;8.30;;;10.40;99.00;;;;;;5050191;28;20074;-81
2021/12/14 01:19:12;;;;;;;10.82;7.53;;;10.40;99.00;;;;;;5040228;28;20370;-81
2021/12/14 01:22:00;;;;;;;10.30;7.57;;;10.40;99.00;;;;;;5045810;28;20041;-80
2021/12/14 01:27:10;;;;;;;12.55;8.95;;;10.40;98.90;;;;;;5051177;28;20033;-80
2021/12/14 01:29:37;;;;;;;12.23;8.82;;;10.40;98.90;;;;;;5060398;28;20029;-80
2021/12/14 01:32:04;;;;;;;11.73;8.80;;;10.40;99.00;;;;;;5046344;28;20095;-81
2021/12/14 01:34:32;;;;;;;12.55;8.80;;;10.40;99.00;;;;;;5037916;28;20105;-80
2021/12/14 01:37:07;;;;;;;10.85;8.55;;;10.40;99.10;;;;;;5043919;28;20030;-79
2021/12/14 01:42:12;;;;;;;;;;;10.40;99.10;;;;;;5051044;28;20031;-80
2021/12/14 01:44:51;;;;;;;14.10;10.25;;;10.40;99.10;;;;;;5051612;28;20344;-79
2021/12/14 01:47:22;;;;;;;13.07;10.27;;;10.40;99.00;;;;;;5049754;28;20033;-79
2021/12/14 01:49:49;;;;;;;13.07;10.02;;;10.40;99.10;;;;;;5036124;28;20481;-79
2021/12/14 01:52:22;;;;;;;11.82;10.02;;;10.30;99.10;;;;;;5043034;28;20485;-79
2021/12/14 01:54:53;;;;;;;14.40;9.48;;;10.30;99.20;;;;;;5044728;28;20021;-79
2021/12/14 01:57:22;;;;;;;12.80;9.20;;;10.30;99.30;;;;;;5038342;28;20030;-79
2021/12/14 01:59:49;;;;;;;12.88;10.15;;;10.40;99.30;;;;;;5035662;28;20105;-79
2021/12/14 02:02:34;;;;;;;12.95;9.90;;;10.40;99.50;;;;;;5040545;28;20040;-80
2021/12/14 02:05:07;;;;;;;13.30;10.25;;;10.40;99.20;;;;;;5039791;28;20038;-79
2021/12/14 02:07:34;;;;;;;12.20;9.98;;;10.40;99.10;;;;;;5036880;28;20024;-79
2021/12/14 02:10:06;;;;;;;12.40;10.45;;;10.40;99.00;;;;;;5022051;28;20512;-78
2021/12/14 02:12:32;;;;;;;14.80;11.02;;;10.40;99.10;;;;;;5017705;28;20049;-79
2021/12/14 02:15:12;;;;;;;12.70;10.50;;;10.40;99.20;;;;;;5023620;28;20017;-79
2021/12/14 02:17:40;;;;;;;15.32;11.15;;;10.40;99.10;;;;;;5025923;28;20029;-79
2021/12/14 02:20:08;;;;;;;13.77;10.75;;;10.30;99.20;;;;;;5029624;28;20048;-79
2021/12/14 02:22:34;;;;;;;13.65;11.30;;;10.30;99.30;;;;;;5043168;28;20029;-79
2021/12/14 02:25:00;;;;;;;13.63;11.18;;;10.30;99.30;;;;;;5055781;28;20037;-79
2021/12/14 02:27:35;;;;;;;15.75;10.27;;;10.20;99.40;;;;;;5061861;28;20022;-79
2021/12/14 02:30:08;;;;;;;14.70;10.45;;;10.20;99.60;;;;;;5050922;28;20029;-78
2021/12/14 02:32:34;;;;;;;17.75;11.57;;;10.20;99.60;;;;;;5039714;28;20091;-79
2021/12/14 02:35:06;;;;;;;15.27;10.38;;;10.20;99.60;;;;;;5034819;28;20408;-79
2021/12/14 02:37:48;;;;;;;17.58;11.52;;;10.10;99.60;;;;;;5047433;28;20025;-79
2021/12/14 02:40:20;;;;;;;15.88;11.30;;;10.10;99.60;;;;;;5051087;28;21721;-78
2021/12/14 02:42:50;;;;;;;16.08;11.77;;;10.10;99.70;;;;;;5036607;28;20030;-79
2021/12/14 02:45:22;;;;;;;16.60;12.32;;;10.10;99.90;;;;;;5035827;28;20045;-81
2021/12/14 02:47:48;;;;;;;15.60;11.70;;;10.00;99.90;;;;;;5032309;28;20029;-78
2021/12/14 02:50:14;;;;;;;15.25;11.95;;;10.00;99.90;;;;;;5032758;28;20495;-78
2021/12/14 02:52:40;;;;;;;16.05;12.13;;;10.00;99.90;;;;;;5050914;28;20495;-79
2021/12/14 02:55:27;;;;;;;14.85;11.35;;;10.10;99.90;;;;;;5051032;28;20028;-78
2021/12/14 02:57:57;;;;;;;16.00;12.40;;;10.10;99.90;;;;;;5038602;28;20059;-78
2021/12/14 03:00:28;;;;;;;18.08;12.45;;;10.10;99.90;;;;;;5033202;28;20112;-78
2021/12/14 03:02:54;;;;;;;17.05;12.77;;;10.10;99.90;;;;;;5052026;28;20028;-77
2021/12/14 03:05:23;;;;;;;15.68;13.13;;;10.00;99.90;;;;;;5038456;28;20034;-77
2021/12/14 03:08:15;;;;;;;15.57;12.10;;;10.10;99.90;;;;;;5031498;28;20053;-77
2021/12/14 03:11:10;;;;;;;13.77;12.05;;;10.10;99.90;;;;;;5042377;28;20502;-77
2021/12/14 03:13:38;;;;;;;16.00;12.73;;;10.10;99.90;;;;;;5038172;28;20389;-78
2021/12/14 03:16:09;;;;;;;16.83;13.38;;;10.10;99.90;;;;;;5038114;28;20042;-78
2021/12/14 03:18:38;;;;;;;20.20;14.18;;;10.10;99.90;;;;;;5042238;28;20033;-78
2021/12/14 03:21:11;;;;;;;19.50;13.85;;;10.10;99.90;;;;;;5049433;28;20029;-77
2021/12/14 03:23:41;;;;;;;;;;;10.10;99.90;;;;;;5065109;28;20082;-78
2021/12/14 03:26:10;;;;;;;16.30;13.57;;;10.10;99.90;;;;;;5055740;28;19963;-79
2021/12/14 03:28:37;;;;;;;20.55;14.38;;;10.10;99.90;;;;;;5039455;28;20493;-78
2021/12/14 03:31:12;;;;;;;19.40;14.20;;;10.10;99.90;;;;;;5054187;28;20041;-78
2021/12/14 03:33:52;;;;;;;19.45;14.07;;;10.00;99.90;;;;;;5045149;28;20026;-78
2021/12/14 03:36:29;;;;;;;19.75;15.40;;;10.00;99.90;;;;;;5049399;28;20033;-78
2021/12/14 03:39:03;;;;;;;19.10;13.68;;;10.10;99.90;;;;;;5044595;28;20484;-78
2021/12/14 03:41:34;;;;;;;17.17;14.40;;;10.00;99.90;;;;;;5036566;28;20026;-79
2021/12/14 03:44:06;;;;;;;23.52;15.77;;;10.10;99.90;;;;;;5037088;28;20037;-78
2021/12/14 03:46:54;;;;;;;20.60;14.20;;;10.10;99.90;;;;;;5049610;28;20036;-80
2021/12/14 03:49:24;;;;;;;20.52;15.00;;;10.00;99.90;;;;;;5050108;28;20052;-79
2021/12/14 03:51:51;;;;;;;18.27;14.63;;;10.00;99.90;;;;;;5037644;28;20025;-79
2021/12/14 03:54:18;;;;;;;21.08;14.82;;;10.00;99.90;;;;;;5033651;28;20379;-79
2021/12/14 03:56:44;;;;;;;19.02;15.15;;;10.00;99.90;;;;;;5034906;28;20099;-79
2021/12/14 03:59:09;;;;;;;20.30;15.23;;;10.00;99.90;;;;;;5046959;28;20477;-79
2021/12/14 04:01:42;;;;;;;19.88;14.80;;;9.90;99.90;;;;;;5036521;28;20503;-79
2021/12/14 04:04:19;;;;;;;18.38;14.65;;;10.00;99.90;;;;;;5034803;28;20049;-79
2021/12/14 04:06:49;;;;;;;20.23;14.77;;;9.90;99.90;;;;;;5040967;28;20110;-78
2021/12/14 04:09:16;;;;;;;18.65;14.70;;;9.90;99.90;;;;;;5049903;28;20032;-77
2021/12/14 04:11:43;;;;;;;20.55;13.98;;;9.80;99.90;;;;;;5042076;28;20099;-78
2021/12/14 04:14:10;;;;;;;20.60;14.85;;;9.80;99.90;;;;;;5038779;28;20040;-79
2021/12/14 04:16:39;;;;;;;18.95;14.88;;;9.90;99.90;;;;;;5042068;28;20051;-79
2021/12/14 04:19:09;;;;;;;19.45;15.07;;;9.90;99.90;;;;;;5045511;28;20037;-78
2021/12/14 04:21:41;;;;;;;21.10;14.38;;;9.80;99.90;;;;;;5054603;28;20111;-79
2021/12/14 04:24:09;;;;;;;21.98;15.43;;;9.80;99.90;;;;;;5041037;28;20046;-79
2021/12/14 04:26:36;;;;;;;17.67;14.38;;;9.80;99.90;;;;;;5035546;28;20472;-79
2021/12/14 04:29:04;;;;;;;18.67;14.80;;;9.80;99.90;;;;;;5043851;28;20033;-79
2021/12/14 04:31:34;;;;;;;18.73;14.82;;;9.80;99.90;;;;;;5047152;28;20029;-78
2021/12/14 04:34:00;;;;;;;19.63;15.18;;;9.80;99.90;;;;;;5031400;28;20499;-79
2021/12/14 04:36:28;;;;;;;22.00;15.30;;;9.80;99.90;;;;;;5040929;28;20036;-78
2021/12/14 04:39:04;;;;;;;18.08;14.40;;;9.80;99.90;;;;;;5036969;28;20022;-78
2021/12/14 04:52:38;;;;;;;18.30;13.95;;;9.70;99.90;;;;;;5048081;28;20130;-78
2021/12/14 04:55:08;;;;;;;19.33;15.20;;;9.70;99.90;;;;;;5036730;28;20032;-78
2021/12/14 04:57:44;;;;;;;18.42;14.98;;;9.60;99.90;;;;;;5045292;28;20048;-79
2021/12/14 05:00:25;;;;;;;20.85;15.18;;;9.70;99.90;;;;;;5043607;28;20029;-78
2021/12/14 05:02:52;;;;;;;17.85;13.43;;;9.70;99.90;;;;;;5028142;28;20033;-78
2021/12/14 05:05:22;;;;;;;18.17;14.40;;;9.70;99.90;;;;;;5030087;28;20388;-78
2021/12/14 05:10:54;;;;;;;19.27;14.98;;;9.80;99.90;;;;;;5029193;28;20389;-77
2021/12/14 05:13:39;;;;;;;22.77;14.43;;;9.80;99.90;;;;;;5027056;28;20026;-78
2021/12/14 05:16:05;;;;;;;17.17;13.70;;;9.80;99.90;;;;;;5053296;28;20037;-77
2021/12/14 05:18:31;;;;;;;19.50;14.15;;;9.70;99.90;;;;;;5064626;28;20052;-78
2021/12/14 05:20:58;;;;;;;16.73;14.15;;;9.80;99.90;;;;;;5041839;28;20025;-78
2021/12/14 05:23:28;;;;;;;18.40;14.30;;;9.80;99.90;;;;;;5047657;28;20032;-78
2021/12/14 05:25:54;;;;;;;17.15;12.90;;;9.70;99.90;;;;;;5047506;28;20036;-79
2021/12/14 05:28:21;;;;;;;20.35;13.45;;;9.70;99.90;;;;;;5043212;28;20028;-77
2021/12/14 05:30:53;;;;;;;16.35;13.07;;;9.60;99.90;;;;;;5043742;28;20017;-79
2021/12/14 05:33:31;;;;;;;17.35;13.05;;;9.60;99.90;;;;;;5037103;28;20026;-80
2021/12/14 05:36:01;;;;;;;16.50;12.73;;;9.60;99.90;;;;;;5050329;28;20476;-80
2021/12/14 05:38:44;;;;;;;16.90;12.00;;;9.70;99.90;;;;;;5046406;28;20139;-80
2021/12/14 05:43:56;;;;;;;16.23;11.55;;;9.70;99.90;;;;;;5044944;28;20573;-81
2021/12/14 05:46:22;;;;;;;16.48;12.00;;;9.70;99.90;;;;;;5049185;28;20487;-80
2021/12/14 05:48:55;;;;;;;15.50;11.80;;;9.70;99.90;;;;;;5044099;28;20037;-81
2021/12/14 05:51:22;;;;;;;15.05;11.45;;;9.70;99.90;;;;;;5043617;28;20475;-81
2021/12/14 05:53:47;;;;;;;15.60;11.20;;;9.70;99.90;;;;;;5035623;28;20091;-80
2021/12/14 05:56:16;;;;;;;16.67;11.18;;;9.70;99.90;;;;;;5037395;28;20042;-79
2021/12/14 05:58:43;;;;;;;16.48;11.73;;;9.60;99.90;;;;;;5045202;28;20026;-78
2021/12/14 06:01:13;;;;;;;13.50;10.30;;;9.70;99.90;;;;;;5048499;28;20032;-77
2021/12/14 06:03:48;;;;;;;14.05;11.00;;;9.70;99.90;;;;;;5038469;28;20037;-77
2021/12/14 06:06:31;;;;;;;15.18;11.18;;;9.70;99.90;;;;;;5037347;28;20083;-77
2021/12/14 06:09:09;;;;;;;14.55;11.27;;;9.70;99.90;;;;;;5050477;28;20451;-77
2021/12/14 06:11:35;;;;;;;17.00;11.60;;;9.70;99.90;;;;;;5044002;28;20068;-78
2021/12/14 06:14:01;;;;;;;16.48;11.40;;;9.80;99.90;;;;;;5058182;28;20016;-79
2021/12/14 06:16:35;;;;;;;19.80;13.15;;;9.80;99.90;;;;;;5056157;28;20026;-79
2021/12/14 06:19:24;;;;;;;15.38;11.70;;;9.70;99.90;;;;;;5038520;28;20028;-79
2021/12/14 06:22:00;;;;;;;16.02;10.85;;;9.70;99.90;;;;;;5041080;28;20032;-79
2021/12/14 06:24:29;;;;;;;16.52;11.85;;;9.70;99.90;;;;;;5043831;28;20484;-78
2021/12/14 06:26:57;;;;;;;20.33;11.60;;;9.70;99.90;;;;;;5044607;28;20026;-79
2021/12/14 06:29:29;;;;;;;14.85;11.48;;;9.70;99.90;;;;;;5043302;28;20027;-79
2021/12/14 06:32:04;;;;;;;15.57;11.88;;;9.70;99.90;;;;;;5048675;28;20148;-78
2021/12/14 06:34:30;;;;;;;17.02;12.13;;;9.70;99.90;;;;;;5046672;28;20439;-82
2021/12/14 06:37:03;;;;;;;17.10;11.65;;;9.60;99.90;;;;;;5044472;28;20039;-78
2021/12/14 06:39:57;;;;;;;18.75;11.57;;;9.60;99.90;;;;;;5042364;28;20449;-76
2021/12/14 06:42:22;;;;;;;16.90;12.02;;;9.70;99.90;;;;;;5043763;28;20068;-80
2021/12/14 06:44:48;;;;;;;18.83;12.50;;;9.70;99.90;;;;;;5039832;28;20477;-83
2021/12/14 06:47:13;;;;;;;17.33;12.02;;;9.70;99.90;;;;;;5040653;28;20028;-78
2021/12/14 06:49:39;;;;;;;18.90;12.70;;;9.80;99.90;;;;;;5044309;28;20031;-81
2021/12/14 06:52:06;;;;;;;19.30;13.73;;;9.80;99.90;;;;;;5040603;28;20496;-78
2021/12/14 06:54:32;;;;;;;19.27;13.48;;;9.80;99.90;;;;;;5035849;28;20032;-81
2021/12/14 06:57:02;;;;;;;19.77;12.90;;;9.80;99.90;;;;;;5041447;28;20021;-81
2021/12/14 06:59:28;;;;;;;17.80;12.93;;;9.80;99.90;;;;;;5043055;28;20029;-83
2021/12/14 07:02:05;;;;;;;18.48;12.52;;;9.80;99.90;;;;;;5036830;28;20045;-79
2021/12/14 07:04:35;;;;;;;19.05;13.65;;;9.80;99.90;;;;;;5039206;28;20065;-83
2021/12/14 07:07:08;;;;;;;18.90;13.68;;;9.80;99.90;;;;;;5038820;28;20098;-85
2021/12/14 07:09:35;;;;;;;;;;;9.90;99.90;;;;;;5036176;28;20052;-80
2021/12/14 07:12:08;;;;;;;21.73;13.63;;;9.90;99.90;;;;;;5048556;28;19924;-80
2021/12/14 07:14:39;;;;;;;18.48;14.00;;;9.90;99.90;;;;;;5049344;28;20033;-79
2021/12/14 07:17:16;;;;;;;20.35;14.52;;;9.90;99.70;;;;;;5050220;28;20025;-77
2021/12/14 07:19:44;;;;;;;20.65;14.55;;;9.80;99.80;;;;;;5053809;28;20029;-75
2021/12/14 07:22:23;;;;;;;18.88;13.82;;;9.90;99.90;;;;;;5050123;28;20021;-78
2021/12/14 07:25:00;;;;;;;22.70;14.73;;;9.90;99.90;;;;;;5033644;28;20029;-77
2021/12/14 07:27:37;;;;;;;21.63;15.30;;;9.90;99.80;;;;;;5033838;28;20392;-79
2021/12/14 07:30:28;;;;;;;20.67;15.07;;;9.80;99.80;;;;;;5033898;28;20025;-79
2021/12/14 07:32:58;;;;;;;23.05;15.40;;;9.80;99.90;;;;;;5028447;28;20033;-76
2021/12/14 07:35:41;;;;;;;20.63;15.18;;;9.90;99.80;;;;;;5013987;28;20037;-75
2021/12/14 07:38:33;;;;;;;24.30;16.65;;;9.80;99.80;;;;;;5017604;28;20022;-76
2021/12/14 07:41:19;;;;;;;21.98;16.73;;;9.80;99.80;;;;;;5016466;28;20168;-75
2021/12/14 07:43:56;;;;;;;21.38;15.75;;;9.80;99.80;;;;;;5013803;28;20033;-76
2021/12/14 07:46:40;;;;;;;22.73;16.70;;;9.90;99.90;;;;;;5040092;28;20056;-76
2021/12/14 07:49:10;;;;;;;21.52;16.23;;;9.90;99.90;;;;;;5041195;28;20384;-76
2021/12/14 07:51:39;;;;;;;24.17;17.05;;;9.80;99.90;;;;;;5044304;28;20036;-76
2021/12/14 07:54:27;;;;;;;24.88;17.90;;;9.90;99.80;;;;;;5045718;28;20024;-76
2021/12/14 07:56:59;;;;;;;23.70;17.45;;;9.90;99.90;;;;;;5043352;28;20041;-77
2021/12/14 07:59:27;;;;;;;24.15;17.98;;;9.80;99.90;;;;;;5031109;28;20116;-76
2021/12/14 08:02:11;;;;;;;24.63;16.80;;;9.80;99.90;;;;;;5050028;28;20033;-77
2021/12/14 08:04:39;;;;;;;26.05;16.80;;;9.80;99.90;;;;;;5050535;28;20037;-76
2021/12/14 08:07:06;;;;;;;27.70;18.90;;;9.80;99.90;;;;;;5041671;28;20223;-77
2021/12/14 08:09:49;;;;;;;25.17;18.17;;;9.90;99.90;;;;;;5054223;28;20049;-77
2021/12/14 08:12:31;;;;;;;26.38;18.23;;;9.90;99.90;;;;;;5039340;28;20045;-77
2021/12/14 08:15:11;;;;;;;24.23;17.80;;;9.90;99.90;;;;;;5040258;28;20037;-78
2021/12/14 08:17:38;;;;;;;25.48;17.83;;;9.90;99.90;;;;;;5037670;28;20064;-77
2021/12/14 08:20:10;;;;;;;27.95;19.70;;;9.90;99.90;;;;;;5039917;28;20060;-76
2021/12/14 08:22:41;;;;;;;24.98;19.65;;;9.90;99.90;;;;;;5044479;28;20039;-77
2021/12/14 08:25:12;;;;;;;25.52;17.90;;;9.90;99.90;;;;;;5050290;28;20044;-76
2021/12/14 08:27:44;;;;;;;26.13;20.13;;;9.80;99.90;;;;;;5040024;28;20056;-77
2021/12/14 08:30:15;;;;;;;24.15;18.48;;;9.80;99.90;;;;;;5041471;28;20025;-76
2021/12/14 08:32:41;;;;;;;27.88;19.40;;;9.80;99.90;;;;;;5044345;28;20064;-76
2021/12/14 08:35:10;;;;;;;25.38;18.58;;;9.80;99.90;;;;;;5040950;28;20044;-77
2021/12/14 08:37:40;;;;;;;24.75;18.77;;;9.90;99.90;;;;;;5043116;28;20358;-77
2021/12/14 08:40:12;;;;;;;25.48;18.20;;;9.90;99.90;;;;;;5032480;28;20171;-77
2021/12/14 08:42:49;;;;;;;23.83;18.80;;;9.90;99.90;;;;;;5044420;28;20090;-77
2021/12/14 08:45:25;;;;;;;26.13;19.60;;;10.00;99.90;;;;;;5035592;28;20527;-77
2021/12/14 08:47:53;;;;;;;25.40;19.27;;;9.90;99.90;;;;;;5035295;28;20488;-77
2021/12/14 08:50:19;;;;;;;27.13;18.02;;;9.90;99.90;;;;;;5033935;28;20048;-77
2021/12/14 08:52:45;;;;;;;26.50;19.05;;;10.00;99.90;;;;;;5034270;28;20029;-77
2021/12/14 08:55:14;;;;;;;27.52;19.52;;;10.00;99.90;;;;;;5035931;28;20025;-77
2021/12/14 08:57:41;;;;;;;25.60;18.88;;;10.00;99.90;;;;;;5048882;28;20032;-77
2021/12/14 09:00:16;;;;;;;28.13;19.75;;;10.00;99.90;;;;;;5038572;28;20036;-77
2021/12/14 09:02:45;;;;;;;28.58;21.35;;;10.00;99.90;;;;;;5047454;28;20029;-77
2021/12/14 09:05:22;;;;;;;28.85;21.00;;;10.00;99.90;;;;;;5039773;28;20439;-76
2021/12/14 09:07:47;;;;;;;32.35;21.73;;;10.00;99.90;;;;;;5051494;28;20025;-77
2021/12/14 09:10:19;;;;;;;31.50;21.42;;;10.00;99.90;;;;;;5056294;28;20102;-77
2021/12/14 09:12:48;;;;;;;27.45;20.17;;;10.00;99.90;;;;;;5051228;28;20052;-76
2021/12/14 09:15:23;;;;;;;28.13;21.15;;;10.00;99.90;;;;;;5036547;28;20040;-76
2021/12/14 09:17:51;;;;;;;35.17;23.33;;;10.00;99.90;;;;;;5035477;28;20064;-75
2021/12/14 09:20:24;;;;;;;30.42;21.27;;;10.00;99.90;;;;;;5036245;28;20033;-76
2021/12/14 09:22:57;;;;;;;29.73;21.35;;;10.00;99.90;;;;;;5032601;28;20108;-77
2021/12/14 09:25:26;;;;;;;31.08;22.67;;;10.10;99.90;;;;;;5040410;28;20044;-77
2021/12/14 09:27:53;;;;;;;31.60;22.42;;;10.10;99.80;;;;;;5044113;28;20025;-77
2021/12/14 09:30:21;;;;;;;31.20;22.17;;;10.00;99.70;;;;;;5037606;28;20084;-77
2021/12/14 09:32:47;;;;;;;30.27;22.02;;;10.00;99.90;;;;;;5016149;28;20164;-77
2021/12/14 09:35:19;;;;;;;30.45;22.35;;;10.00;99.90;;;;;;5019842;28;20080;-77
2021/12/14 09:37:48;;;;;;;31.05;22.25;;;10.00;99.80;;;;;;5027218;28;20046;-77
2021/12/14 09:40:24;;;;;;;33.08;21.55;;;10.10;99.90;;;;;;5035827;28;20060;-77
2021/12/14 09:42:49;;;;;;;33.08;22.40;;;10.10;99.90;;;;;;5035899;28;20503;-77
2021/12/14 09:45:22;;;;;;;32.85;23.48;;;10.10;99.80;;;;;;5035719;28;20041;-76
2021/12/14 09:47:49;;;;;;;32.47;24.10;;;10.10;99.80;;;;;;5035898;28;20045;-76
2021/12/14 09:50:26;;;;;;;35.08;24.33;;;10.10;99.80;;;;;;5035822;28;20041;-77
2021/12/14 09:52:54;;;;;;;34.47;23.90;;;10.10;99.80;;;;;;5035601;28;20036;-79
2021/12/14 09:55:24;;;;;;;35.92;25.45;;;10.10;99.70;;;;;;5038641;28;20025;-77
2021/12/14 09:57:54;;;;;;;31.20;23.42;;;10.10;99.80;;;;;;5040259;28;20111;-80
2021/12/14 10:00:25;;;;;;;33.30;23.83;;;10.10;99.80;;;;;;5050258;28;20053;-80
2021/12/14 10:02:54;;;;;;;37.42;24.83;;;10.10;99.80;;;;;;5049788;28;20033;-75
2021/12/14 10:05:34;;;;;;;34.10;24.20;;;10.10;99.80;;;;;;5037607;28;20060;-76
2021/12/14 10:08:01;;;;;;;30.10;22.05;;;10.20;99.90;;;;;;5036571;28;20021;-77
2021/12/14 10:10:30;;;;;;;30.15;22.10;;;10.20;99.80;;;;;;5041328;28;20116;-79
2021/12/14 10:12:56;;;;;;;35.65;24.15;;;10.30;99.80;;;;;;5046770;28;20443;-78
2021/12/14 10:15:47;;;;;;;34.42;24.52;;;10.30;99.70;;;;;;5041377;28;20094;-78
2021/12/14 10:18:18;;;;;;;36.08;24.38;;;10.30;99.70;;;;;;5040865;28;20401;-78
2021/12/14 10:20:51;;;;;;;37.05;24.90;;;10.30;99.60;;;;;;5036338;28;20029;-79
2021/12/14 10:23:19;;;;;;;40.63;26.45;;;10.30;99.50;;;;;;5042626;28;20115;-83
2021/12/14 10:25:45;;;;;;;37.03;25.58;;;10.20;99.60;;;;;;5036356;28;20041;-84
2021/12/14 10:28:13;;;;;;;36.70;25.02;;;10.20;99.90;;;;;;5042547;28;20480;-85
2021/12/14 10:30:45;;;;;;;38.70;26.35;;;10.20;99.90;;;;;;5048044;28;20029;-84
2021/12/14 10:33:17;;;;;;;40.95;27.70;;;10.30;99.90;;;;;;5049898;28;20021;-79
2021/12/14 10:35:48;;;;;;;37.70;26.80;;;10.20;99.80;;;;;;5039678;28;20037;-79
2021/12/14 10:38:23;;;;;;;39.97;26.92;;;10.30;99.90;;;;;;5046696;28;20037;-78
2021/12/14 10:43:41;;;;;;;42.53;27.90;;;10.20;99.90;;;;;;5035626;28;20043;-78
2021/12/14 10:46:21;;;;;;;45.38;27.80;;;10.20;99.90;;;;;;5040946;28;20541;-78
2021/12/14 10:48:48;;;;;;;44.25;27.80;;;10.20;99.90;;;;;;5047390;28;20087;-78
2021/12/14 10:51:17;;;;;;;43.55;29.45;;;10.20;99.90;;;;;;5046141;28;20036;-78
2021/12/14 10:53:46;;;;;;;46.25;29.45;;;10.20;99.90;;;;;;5038440;28;20037;-78
2021/12/14 10:56:19;;;;;;;43.90;29.20;;;10.20;99.90;;;;;;5038845;28;20017;-78
2021/12/14 10:58:49;;;;;;;42.67;28.23;;;10.20;99.90;;;;;;5041206;28;20075;-77
2021/12/14 11:01:30;;;;;;;45.33;30.50;;;10.20;99.90;;;;;;5054394;28;20037;-77
2021/12/14 11:04:01;;;;;;;47.75;30.88;;;10.20;99.90;;;;;;5043893;28;20451;-76
2021/12/14 11:06:31;;;;;;;44.72;29.98;;;10.20;99.90;;;;;;5035500;28;20031;-77
2021/12/14 11:11:47;;;;;;;43.00;29.08;;;10.20;99.90;;;;;;5046128;28;20045;-78
2021/12/14 11:14:19;;;;;;;47.95;31.33;;;10.20;99.90;;;;;;5042827;28;20362;-77
2021/12/14 11:19:39;;;;;;;46.97;30.45;;;10.20;99.90;;;;;;5031469;28;20550;-77
2021/12/14 11:22:26;;;;;;;52.95;31.65;;;10.30;99.90;;;;;;5045200;28;20056;-77
2021/12/14 11:25:06;;;;;;;47.50;30.83;;;10.30;99.90;;;;;;5046151;28;20041;-77
2021/12/14 11:27:36;;;;;;;51.03;32.20;;;10.30;99.90;;;;;;5041424;28;20044;-77
2021/12/14 11:30:25;;;;;;;51.08;32.28;;;10.30;99.90;;;;;;5033978;28;20072;-77
2021/12/14 11:33:08;;;;;;;50.05;31.65;;;10.30;99.90;;;;;;5039716;28;20405;-78
2021/12/14 11:35:40;;;;;;;50.42;32.90;;;10.30;99.90;;;;;;5044855;28;20045;-77
2021/12/14 11:38:21;;;;;;;52.70;32.88;;;10.30;99.90;;;;;;5028684;28;20021;-77
2021/12/14 11:40:47;;;;;;;56.03;33.80;;;10.30;99.90;;;;;;5020603;28;20107;-77
2021/12/14 11:43:17;;;;;;;51.83;32.72;;;10.30;99.90;;;;;;5026054;28;20544;-77
2021/12/14 11:45:47;;;;;;;56.78;33.70;;;10.30;99.90;;;;;;5019492;28;20064;-76
2021/12/14 11:48:14;;;;;;;51.97;33.55;;;10.40;99.90;;;;;;5028011;28;20029;-76
2021/12/14 11:50:44;;;;;;;56.72;35.63;;;10.40;99.90;;;;;;5037223;28;20030;-76
2021/12/14 11:53:14;;;;;;;55.25;33.90;;;10.50;99.90;;;;;;5046122;28;20029;-77
2021/12/14 11:55:45;;;;;;;56.22;34.58;;;10.40;99.90;;;;;;5042226;28;20017;-82
2021/12/14 11:58:30;;;;;;;52.92;33.92;;;10.40;99.90;;;;;;5060277;28;20025;-83
2021/12/14 12:01:24;;;;;;;53.85;33.35;;;10.50;99.90;;;;;;5068491;28;20049;-87
2021/12/14 12:04:00;;;;;;;56.17;35.15;;;10.50;99.90;;;;;;5040456;28;20139;-87
2021/12/14 12:12:05;;;;;;;53.85;35.75;;;10.50;99.90;;;;;;5033879;28;20151;-86
2021/12/14 12:14:32;;;;;;;57.05;35.90;;;10.50;99.90;;;;;;5035623;28;20040;-87
2021/12/14 12:17:10;;;;;;;54.22;34.05;;;10.50;99.90;;;;;;5033478;28;20237;-82
2021/12/14 12:19:36;;;;;;;58.30;37.25;;;10.40;99.90;;;;;;5033090;28;20033;-81
2021/12/14 12:22:09;;;;;;;58.53;37.13;;;10.40;99.90;;;;;;5037624;28;20029;-87
2021/12/14 12:24:50;;;;;;;56.88;35.20;;;10.40;99.90;;;;;;5042175;28;20038;-88
2021/12/14 12:27:21;;;;;;;56.58;35.42;;;10.50;99.90;;;;;;5035145;28;20139;-86
2021/12/14 12:30:02;;;;;;;62.63;37.55;;;10.50;99.90;;;;;;5034409;28;20037;-89
2021/12/14 12:32:28;;;;;;;58.22;35.67;;;10.50;99.90;;;;;;5034271;28;20489;-83
2021/12/14 12:34:54;;;;;;;60.95;37.58;;;10.50;99.90;;;;;;5034481;28;20033;-81
2021/12/14 12:37:35;;;;;;;55.72;35.33;;;10.50;99.90;;;;;;5036765;28;20028;-81
2021/12/14 12:40:01;;;;;;;64.57;37.38;;;10.50;99.90;;;;;;5054822;28;20029;-85
2021/12/14 12:42:26;;;;;;;57.08;34.88;;;10.50;99.90;;;;;;5048315;28;20116;-89
2021/12/14 12:44:52;;;;;;;59.28;37.15;;;10.50;99.90;;;;;;5038386;28;20037;-87
2021/12/14 12:47:22;;;;;;;63.42;38.03;;;10.60;99.90;;;;;;5050571;28;20028;-83
2021/12/14 12:49:51;;;;;;;59.83;36.58;;;10.60;99.90;;;;;;5032825;28;20033;-81
2021/12/14 12:52:31;;;;;;;56.92;35.72;;;10.50;99.90;;;;;;5040749;28;20026;-79
2021/12/14 12:55:08;;;;;;;61.40;37.20;;;10.60;99.90;;;;;;5057883;28;20052;-83
2021/12/14 12:57:46;;;;;;;63.15;36.22;;;10.60;99.90;;;;;;5054273;28;20033;-81
2021/12/14 13:00:37;;;;;;;56.92;36.08;;;10.60;99.90;;;;;;5049499;28;20087;-82
2021/12/14 13:03:27;;;;;;;61.55;37.67;;;10.50;99.90;;;;;;5032246;28;20060;-83
2021/12/14 13:05:55;;;;;;;69.57;38.90;;;10.60;99.90;;;;;;5033836;28;20038;-85
2021/12/14 13:08:33;;;;;;;61.42;36.85;;;10.50;99.90;;;;;;5036568;28;20393;-83
2021/12/14 13:11:16;;;;;;;64.75;39.20;;;10.50;99.90;;;;;;5035280;28;20078;-84
2021/12/14 13:13:48;;;;;;;64.60;37.50;;;10.50;99.90;;;;;;5036427;28;20025;-82
2021/12/14 13:16:20;;;;;;;60.38;36.65;;;10.50;99.90;;;;;;5048155;28;20033;-83
2021/12/14 13:18:46;;;;;;;66.10;40.45;;;10.50;99.90;;;;;;5037487;28;20039;-79
2021/12/14 13:21:18;;;;;;;65.85;40.10;;;10.50;99.90;;;;;;5036390;28;20029;-80
2021/12/14 13:24:14;;;;;;;71.63;41.42;;;10.50;99.90;;;;;;5047739;28;20426;-81
2021/12/14 13:26:44;;;;;;;71.50;40.03;;;10.50;99.90;;;;;;5042580;28;20120;-84
2021/12/14 13:29:12;;;;;;;67.22;38.28;;;10.50;99.90;;;;;;5038784;28;20048;-83
2021/12/14 13:31:38;;;;;;;71.88;41.28;;;10.40;99.90;;;;;;5038317;28;20365;-84
2021/12/14 13:34:08;;;;;;;74.97;42.78;;;10.40;99.90;;;;;;5046852;28;20028;-84
2021/12/14 13:36:34;;;;;;;70.05;40.67;;;10.40;99.90;;;;;;5040803;28;20029;-84
2021/12/14 13:39:00;;;;;;;69.25;41.08;;;10.40;99.90;;;;;;5049136;28;20078;-83